createdAt,value
2023-02-18T00:01:40.364Z,15.95
2023-02-18T00:04:13.151Z,15.57
2023-02-18T00:06:47.506Z,14.55
2023-02-18T00:09:20.356Z,15.32
2023-02-18T00:11:53.508Z,16.92
2023-02-18T00:14:26.281Z,16.95
2023-02-18T00:16:59.062Z,15.70
2023-02-18T00:19:31.883Z,15.95
2023-02-18T00:22:06.025Z,17.40
2023-02-18T00:24:39.590Z,16.42
2023-02-18T00:27:12.538Z,18.10
2023-02-18T00:29:45.640Z,16.33
2023-02-18T00:32:18.461Z,17.92
2023-02-18T00:34:51.288Z,17.25
2023-02-18T00:37:25.455Z,17.13
2023-02-18T00:39:58.368Z,17.45
2023-02-18T00:45:03.692Z,16.93
2023-02-18T00:47:37.450Z,17.42
2023-02-18T00:50:11.652Z,16.92
2023-02-18T00:52:45.871Z,16.30
2023-02-18T00:55:18.760Z,17.08
2023-02-18T01:00:25.480Z,14.95
2023-02-18T01:02:58.221Z,17.08
2023-02-18T01:05:31.761Z,15.32
2023-02-18T01:08:07.056Z,15.85
2023-02-18T01:10:43.857Z,15.38
2023-02-18T01:13:18.044Z,15.57
2023-02-18T01:15:51.448Z,15.43
2023-02-18T01:18:25.892Z,15.65
2023-02-18T01:20:59.647Z,16.20
2023-02-18T01:23:33.767Z,16.13
2023-02-18T01:26:07.361Z,15.95
2023-02-18T01:28:41.633Z,15.38
2023-02-18T01:31:15.538Z,14.98
2023-02-18T01:33:48.744Z,14.85
2023-02-18T01:36:21.547Z,14.18
2023-02-18T01:38:55.749Z,15.63
2023-02-18T01:41:29.165Z,14.93
2023-02-18T01:44:16.287Z,14.48
2023-02-18T01:46:51.973Z,14.25
2023-02-18T01:49:27.632Z,15.27
2023-02-18T01:52:03.997Z,16.45
2023-02-18T01:54:42.346Z,15.25
2023-02-18T01:57:18.105Z,14.40
2023-02-18T01:59:55.855Z,14.48
2023-02-18T02:02:31.076Z,13.48
2023-02-18T02:05:04.088Z,15.50
2023-02-18T02:07:36.922Z,15.27
2023-02-18T02:10:13.663Z,13.68
2023-02-18T02:12:57.834Z,13.43
2023-02-18T02:15:39.530Z,14.90
2023-02-18T02:18:32.914Z,13.73
2023-02-18T02:21:42.307Z,14.68
2023-02-18T02:24:46.747Z,16.45
2023-02-18T02:27:26.150Z,15.02
2023-02-18T02:30:41.178Z,15.88
2023-02-18T02:33:29.321Z,16.33
2023-02-18T02:36:10.719Z,15.90
2023-02-18T02:38:55.006Z,16.85
2023-02-18T02:41:39.272Z,15.27
2023-02-18T02:44:21.159Z,14.10
2023-02-18T02:47:01.843Z,15.25
2023-02-18T02:49:42.968Z,14.68
2023-02-18T02:52:21.739Z,15.13
2023-02-18T02:54:54.639Z,16.38
2023-02-18T03:00:45.122Z,14.82
2023-02-18T03:03:39.202Z,14.07
2023-02-18T03:06:38.745Z,15.32
2023-02-18T03:09:22.892Z,14.02
2023-02-18T03:12:02.750Z,13.65
2023-02-18T03:14:47.301Z,13.45
2023-02-18T03:17:26.158Z,13.57
2023-02-18T03:20:09.746Z,12.98
2023-02-18T03:22:46.700Z,12.02
2023-02-18T03:25:22.703Z,10.98
2023-02-18T03:27:59.392Z,10.32
2023-02-18T03:30:36.110Z,10.35
2023-02-18T03:33:12.388Z,11.07
2023-02-18T03:35:48.166Z,10.60
2023-02-18T03:38:25.623Z,10.77
2023-02-18T03:41:00.493Z,9.98
2023-02-18T03:43:33.514Z,10.38
2023-02-18T03:46:06.818Z,11.18
2023-02-18T03:48:39.889Z,11.38
2023-02-18T03:51:12.673Z,10.73
2023-02-18T03:53:45.629Z,10.90
2023-02-18T03:56:20.855Z,10.40
2023-02-18T03:58:53.872Z,10.57
2023-02-18T04:01:26.713Z,10.52
2023-02-18T04:06:32.131Z,10.87
2023-02-18T04:09:08.981Z,10.57
2023-02-18T04:11:43.422Z,11.02
2023-02-18T04:14:16.321Z,12.15
2023-02-18T04:19:21.829Z,11.10
2023-02-18T04:21:54.606Z,10.55
2023-02-18T04:24:27.467Z,10.30
2023-02-18T04:27:01.776Z,10.52
2023-02-18T04:29:36.750Z,10.85
2023-02-18T04:32:09.909Z,9.93
2023-02-18T04:34:43.218Z,10.68
2023-02-18T04:37:16.098Z,10.85
2023-02-18T04:42:22.809Z,12.03
2023-02-18T04:44:55.581Z,10.70
2023-02-18T04:47:28.568Z,10.20
2023-02-18T04:52:34.018Z,10.43
2023-02-18T04:55:07.711Z,12.02
2023-02-18T04:57:41.978Z,9.73
2023-02-18T05:00:17.967Z,11.25
2023-02-18T05:02:50.891Z,10.93
2023-02-18T05:07:56.413Z,11.65
2023-02-18T05:10:29.282Z,10.05
2023-02-18T05:13:03.351Z,10.32
2023-02-18T05:15:36.408Z,11.15
2023-02-18T05:18:09.266Z,12.10
2023-02-18T05:23:14.763Z,10.77
2023-02-18T05:25:47.711Z,13.05
2023-02-18T05:28:21.778Z,11.18
2023-02-18T05:30:55.036Z,10.48
2023-02-18T05:33:28.344Z,12.50
2023-02-18T05:36:01.325Z,11.63
2023-02-18T05:41:06.902Z,13.30
2023-02-18T05:43:55.158Z,12.75
2023-02-18T05:46:28.073Z,12.95
2023-02-18T05:49:01.118Z,13.40
2023-02-18T05:51:34.041Z,13.18
2023-02-18T05:54:06.774Z,13.07
2023-02-18T05:56:39.822Z,12.93
2023-02-18T06:01:46.972Z,12.32
2023-02-18T06:04:19.766Z,12.68
2023-02-18T06:06:52.648Z,11.27
2023-02-18T06:11:58.481Z,10.57
2023-02-18T06:14:32.637Z,10.18
2023-02-18T06:17:05.718Z,11.65
2023-02-18T06:19:38.609Z,12.00
2023-02-18T06:22:11.966Z,11.85
2023-02-18T06:24:44.901Z,10.48
2023-02-18T06:29:51.725Z,10.00
2023-02-18T06:32:24.771Z,8.60
2023-02-18T06:34:57.609Z,8.82
2023-02-18T06:37:30.345Z,8.55
2023-02-18T06:40:03.248Z,8.88
2023-02-18T06:42:36.072Z,8.52
2023-02-18T06:45:10.835Z,8.88
2023-02-18T06:47:43.635Z,9.68
2023-02-18T06:50:16.783Z,9.18
2023-02-18T06:52:49.609Z,7.47
2023-02-18T06:55:22.694Z,9.00
2023-02-18T06:57:55.556Z,7.90
2023-02-18T07:03:02.484Z,8.30
2023-02-18T07:08:08.525Z,7.18
2023-02-18T07:10:41.237Z,9.18
2023-02-18T07:13:14.056Z,8.40
2023-02-18T07:15:48.173Z,7.03
2023-02-18T07:18:21.102Z,8.25
2023-02-18T07:20:54.207Z,6.30
2023-02-18T07:23:27.011Z,7.10
2023-02-18T07:26:08.876Z,8.18
2023-02-18T07:28:42.368Z,6.22
2023-02-18T07:31:17.676Z,6.03
2023-02-18T07:33:50.645Z,6.40
2023-02-18T07:36:23.351Z,7.63
2023-02-18T07:38:56.083Z,6.97
2023-02-18T07:41:28.891Z,7.25
2023-02-18T07:44:01.530Z,8.30
2023-02-18T07:46:35.836Z,7.30
2023-02-18T07:49:08.659Z,7.28
2023-02-18T07:51:41.464Z,5.97
2023-02-18T07:54:14.179Z,7.32
2023-02-18T07:56:47.008Z,6.95
2023-02-18T07:59:20.040Z,8.55
2023-02-18T08:01:54.340Z,5.90
2023-02-18T08:04:27.321Z,8.85
2023-02-18T08:09:32.670Z,7.60
2023-02-18T08:12:06.154Z,7.68
2023-02-18T08:14:38.907Z,6.18
2023-02-18T08:17:13.062Z,7.03
2023-02-18T08:19:45.784Z,6.93
2023-02-18T08:22:18.483Z,8.07
2023-02-18T08:24:51.163Z,5.93
2023-02-18T08:27:24.817Z,7.07
2023-02-18T08:29:57.914Z,6.38
2023-02-18T08:32:32.072Z,7.88
2023-02-18T08:35:07.674Z,8.07
2023-02-18T08:37:52.189Z,7.40
2023-02-18T08:40:25.955Z,7.68
2023-02-18T08:45:31.373Z,8.43
2023-02-18T08:48:17.854Z,6.63
2023-02-18T08:50:53.077Z,7.60
2023-02-18T08:55:58.761Z,6.00
2023-02-18T08:58:31.445Z,7.65
2023-02-18T09:01:05.439Z,8.85
2023-02-18T09:03:40.518Z,10.65
2023-02-18T09:06:13.314Z,7.78
2023-02-18T09:08:46.068Z,8.60
2023-02-18T09:11:20.675Z,7.72
2023-02-18T09:13:53.524Z,8.15
2023-02-18T09:16:28.210Z,7.22
2023-02-18T09:19:02.644Z,7.68
2023-02-18T09:21:36.675Z,7.45
2023-02-18T09:24:09.821Z,8.05
2023-02-18T09:26:42.654Z,6.70
2023-02-18T09:29:16.207Z,8.00
2023-02-18T09:31:49.031Z,5.97
2023-02-18T09:36:56.128Z,5.93
2023-02-18T09:42:03.736Z,7.77
2023-02-18T09:44:42.440Z,7.20
2023-02-18T09:47:19.210Z,7.22
2023-02-18T09:49:56.185Z,7.53
2023-02-18T09:52:30.900Z,6.45
2023-02-18T09:55:21.825Z,6.72
2023-02-18T09:57:57.122Z,6.25
2023-02-18T10:00:33.769Z,7.00
2023-02-18T10:03:13.465Z,5.65
2023-02-18T10:05:57.352Z,5.78
2023-02-18T10:08:34.442Z,7.97
2023-02-18T10:11:13.638Z,6.22
2023-02-18T10:13:47.049Z,6.40
2023-02-18T10:16:22.121Z,7.10
2023-02-18T10:18:57.586Z,6.85
2023-02-18T10:21:36.153Z,5.80
2023-02-18T10:24:21.034Z,5.82
2023-02-18T10:26:55.502Z,5.53
2023-02-18T10:29:30.844Z,5.95
2023-02-18T10:32:10.027Z,6.32
2023-02-18T10:34:46.900Z,6.43
2023-02-18T10:37:42.217Z,6.00
2023-02-18T10:40:24.091Z,5.90
2023-02-18T10:43:09.892Z,7.38
2023-02-18T10:45:49.910Z,5.80
2023-02-18T10:48:37.122Z,4.68
2023-02-18T10:51:18.305Z,7.03
2023-02-18T10:53:54.205Z,6.20
2023-02-18T10:56:38.960Z,5.43
2023-02-18T10:59:19.695Z,6.43
2023-02-18T11:01:57.405Z,6.63
2023-02-18T11:04:39.496Z,6.30
2023-02-18T11:07:17.127Z,5.97
2023-02-18T11:09:54.461Z,5.38
2023-02-18T11:12:30.456Z,5.15
2023-02-18T11:15:18.306Z,6.07
2023-02-18T11:17:53.925Z,7.22
2023-02-18T11:20:33.703Z,5.63
2023-02-18T11:23:19.980Z,5.20
2023-02-18T11:26:00.491Z,6.53
2023-02-18T11:28:43.070Z,5.47
2023-02-18T11:31:23.306Z,5.57
2023-02-18T11:33:59.336Z,6.45
2023-02-18T11:36:34.956Z,6.10
2023-02-18T11:39:18.883Z,5.28
2023-02-18T11:41:58.927Z,5.22
2023-02-18T11:44:34.223Z,5.53
2023-02-18T11:47:20.427Z,6.43
2023-02-18T11:50:17.676Z,4.38
2023-02-18T11:52:52.177Z,5.63
2023-02-18T11:55:27.908Z,5.55
2023-02-18T11:58:06.101Z,4.95
2023-02-18T12:00:42.388Z,5.47
2023-02-18T12:03:32.965Z,4.88
2023-02-18T12:06:16.411Z,5.10
2023-02-18T12:08:52.491Z,5.25
2023-02-18T12:11:30.096Z,5.45
2023-02-18T12:14:04.793Z,5.20
2023-02-18T12:16:49.608Z,3.85
2023-02-18T12:19:58.085Z,5.63
2023-02-18T12:22:43.067Z,5.68
2023-02-18T12:25:26.245Z,6.80
2023-02-18T12:31:05.605Z,4.93
2023-02-18T12:33:53.025Z,5.53
2023-02-18T12:36:39.937Z,5.28
2023-02-18T12:39:24.035Z,5.15
2023-02-18T12:42:12.923Z,4.72
2023-02-18T12:45:00.226Z,5.10
2023-02-18T12:47:52.896Z,5.82
2023-02-18T12:50:56.301Z,4.47
2023-02-18T12:53:52.081Z,4.55
2023-02-18T12:56:50.207Z,5.35
2023-02-18T12:59:43.816Z,5.15
2023-02-18T13:02:30.263Z,4.95
2023-02-18T13:05:13.519Z,5.18
2023-02-18T13:08:05.000Z,5.63
2023-02-18T13:11:00.961Z,6.00
2023-02-18T13:13:38.086Z,5.65
2023-02-18T13:16:14.563Z,5.88
2023-02-18T13:18:55.764Z,5.20
2023-02-18T13:21:30.506Z,5.07
2023-02-18T13:24:07.218Z,4.13
2023-02-18T13:26:45.250Z,6.35
2023-02-18T13:29:26.276Z,4.50
2023-02-18T13:32:07.827Z,6.03
2023-02-18T13:34:47.841Z,5.57
2023-02-18T13:37:32.158Z,4.38
2023-02-18T13:40:05.865Z,5.13
2023-02-18T13:42:38.911Z,4.75
2023-02-18T13:45:35.669Z,5.10
2023-02-18T13:48:24.141Z,5.95
2023-02-18T13:51:04.090Z,4.63
2023-02-18T13:53:42.637Z,5.38
2023-02-18T13:56:23.086Z,5.95
2023-02-18T13:59:01.039Z,5.25
2023-02-18T14:01:42.974Z,4.57
2023-02-18T14:04:53.412Z,5.63
2023-02-18T14:07:48.121Z,6.03
2023-02-18T14:10:32.348Z,6.13
2023-02-18T14:13:23.800Z,6.22
2023-02-18T14:16:01.207Z,5.68
2023-02-18T14:18:53.870Z,5.88
2023-02-18T14:21:44.860Z,6.37
2023-02-18T14:24:50.638Z,4.90
2023-02-18T14:27:25.346Z,4.95
2023-02-18T14:30:05.117Z,6.82
2023-02-18T14:32:41.109Z,4.90
2023-02-18T14:35:27.237Z,4.35
2023-02-18T14:38:40.784Z,6.03
2023-02-18T14:41:26.680Z,4.68
2023-02-18T14:44:20.440Z,6.10
2023-02-18T14:47:07.517Z,6.72
2023-02-18T14:49:44.684Z,5.10
2023-02-18T14:52:29.719Z,6.15
2023-02-18T14:55:05.064Z,6.47
2023-02-18T14:57:45.950Z,5.85
2023-02-18T15:00:22.658Z,4.85
2023-02-18T15:02:56.475Z,5.57
2023-02-18T15:05:31.345Z,7.22
2023-02-18T15:08:08.859Z,5.70
2023-02-18T15:10:44.069Z,5.15
2023-02-18T15:13:23.318Z,6.22
2023-02-18T15:15:58.552Z,6.00
2023-02-18T15:18:35.431Z,6.43
2023-02-18T15:21:16.815Z,6.20
2023-02-18T15:23:50.557Z,5.65
2023-02-18T15:26:23.653Z,5.50
2023-02-18T15:29:00.960Z,6.53
2023-02-18T15:31:38.758Z,7.05
2023-02-18T15:34:31.122Z,6.80
2023-02-18T15:37:06.475Z,6.95
2023-02-18T15:39:40.766Z,5.55
2023-02-18T15:42:20.558Z,5.30
2023-02-18T15:44:58.497Z,5.13
2023-02-18T15:47:32.124Z,5.72
2023-02-18T15:50:06.247Z,5.70
2023-02-18T15:52:40.024Z,6.70
2023-02-18T15:55:20.669Z,6.38
2023-02-18T15:57:55.422Z,6.78
2023-02-18T16:00:31.938Z,7.05
2023-02-18T16:03:13.779Z,6.88
2023-02-18T16:05:46.670Z,5.80
2023-02-18T16:08:26.525Z,7.13
2023-02-18T16:11:03.785Z,6.10
2023-02-18T16:13:38.250Z,7.85
2023-02-18T16:16:25.146Z,7.43
2023-02-18T16:18:57.969Z,6.72
2023-02-18T16:21:34.589Z,6.80
2023-02-18T16:24:26.498Z,6.28
2023-02-18T16:27:00.489Z,7.90
2023-02-18T16:29:37.197Z,7.03
2023-02-18T16:32:11.492Z,7.45
2023-02-18T16:34:44.410Z,7.30
2023-02-18T16:37:34.974Z,6.32
2023-02-18T16:40:24.292Z,7.03
2023-02-18T16:42:59.734Z,6.25
2023-02-18T16:45:35.521Z,6.00
2023-02-18T16:48:18.073Z,6.32
2023-02-18T16:50:52.515Z,6.70
2023-02-18T16:53:25.379Z,5.57
2023-02-18T16:55:58.101Z,7.50
2023-02-18T16:58:30.984Z,6.05
2023-02-18T17:01:03.887Z,6.20
2023-02-18T17:03:37.980Z,7.25
2023-02-18T17:06:11.152Z,7.32
2023-02-18T17:08:44.303Z,6.78
2023-02-18T17:11:25.673Z,7.78
2023-02-18T17:13:59.526Z,6.45
2023-02-18T17:16:32.535Z,6.22
2023-02-18T17:19:06.834Z,6.28
2023-02-18T17:21:39.674Z,8.15
2023-02-18T17:26:45.981Z,6.50
2023-02-18T17:31:57.701Z,7.18
2023-02-18T17:34:32.694Z,9.27
2023-02-18T17:37:05.443Z,9.60
2023-02-18T17:39:38.244Z,8.43
2023-02-18T17:42:12.248Z,7.93
2023-02-18T17:44:45.116Z,7.30
2023-02-18T17:49:52.278Z,8.30
2023-02-18T17:52:31.517Z,8.50
2023-02-18T17:55:16.822Z,9.55
2023-02-18T17:57:50.421Z,9.52
2023-02-18T18:00:27.509Z,9.50
2023-02-18T18:03:00.497Z,7.90
2023-02-18T18:05:36.820Z,6.95
2023-02-18T18:08:10.216Z,8.80
2023-02-18T18:10:50.490Z,7.85
2023-02-18T18:13:25.287Z,10.02
2023-02-18T18:15:58.266Z,8.55
2023-02-18T18:21:05.744Z,7.85
2023-02-18T18:23:38.558Z,7.80
2023-02-18T18:26:11.604Z,8.25
2023-02-18T18:28:44.360Z,9.93
2023-02-18T18:31:19.757Z,7.28
2023-02-18T18:33:53.770Z,8.18
2023-02-18T18:36:28.151Z,8.18
2023-02-18T18:39:00.975Z,8.20
2023-02-18T18:41:33.793Z,7.30
2023-02-18T18:44:07.144Z,8.43
2023-02-18T18:46:40.206Z,7.30
2023-02-18T18:51:47.426Z,8.82
2023-02-18T18:54:20.153Z,6.50
2023-02-18T18:56:55.093Z,9.43
2023-02-18T18:59:27.917Z,8.15
2023-02-18T19:04:33.447Z,7.67
2023-02-18T19:09:40.599Z,8.98
2023-02-18T19:12:13.471Z,9.60
2023-02-18T19:17:19.028Z,8.48
2023-02-18T19:19:51.823Z,8.40
2023-02-18T19:22:25.977Z,9.23
2023-02-18T19:24:58.821Z,7.78
2023-02-18T19:27:31.627Z,8.20
2023-02-18T19:30:05.292Z,9.25
2023-02-18T19:32:38.302Z,8.68
2023-02-18T19:35:12.703Z,7.15
2023-02-18T19:37:47.791Z,7.95
2023-02-18T19:40:22.596Z,7.22
2023-02-18T19:42:55.561Z,8.10
2023-02-18T19:48:01.920Z,8.15
2023-02-18T19:50:35.159Z,7.20
2023-02-18T19:53:10.146Z,8.27
2023-02-18T19:55:43.043Z,7.40
2023-02-18T20:00:48.734Z,8.20
2023-02-18T20:05:54.568Z,9.45
2023-02-18T20:11:01.868Z,8.73
2023-02-18T20:16:08.596Z,7.57
2023-02-18T20:18:41.578Z,11.32
2023-02-18T20:23:48.633Z,8.20
2023-02-18T20:26:21.928Z,8.75
2023-02-18T20:28:54.762Z,9.98
2023-02-18T20:31:27.593Z,6.90
2023-02-18T20:36:33.442Z,8.55
2023-02-18T20:39:16.258Z,8.75
2023-02-18T20:41:50.272Z,9.80
2023-02-18T20:44:24.386Z,9.23
2023-02-18T20:46:57.200Z,7.90
2023-02-18T20:49:30.175Z,8.65
2023-02-18T20:54:38.256Z,8.75
2023-02-18T20:57:11.288Z,8.75
2023-02-18T20:59:44.283Z,10.07
2023-02-18T21:04:50.831Z,8.77
2023-02-18T21:07:23.639Z,9.60
2023-02-18T21:09:57.774Z,10.52
2023-02-18T21:12:31.174Z,10.07
2023-02-18T21:15:04.304Z,9.75
2023-02-18T21:17:37.476Z,8.93
2023-02-18T21:20:10.618Z,8.38
2023-02-18T21:22:43.359Z,8.50
2023-02-18T21:25:17.513Z,9.70
2023-02-18T21:27:50.160Z,9.85
2023-02-18T21:30:23.143Z,8.30
2023-02-18T21:35:29.508Z,8.05
2023-02-18T21:40:38.023Z,8.93
2023-02-18T21:43:11.714Z,9.05
2023-02-18T21:45:44.445Z,8.07
2023-02-18T21:48:34.893Z,8.65
2023-02-18T21:51:07.869Z,9.32
2023-02-18T21:53:41.125Z,10.07
2023-02-18T21:56:15.418Z,9.15
2023-02-18T21:58:48.213Z,8.90
2023-02-18T22:01:20.985Z,11.38
2023-02-18T22:03:55.238Z,8.20
2023-02-18T22:06:28.165Z,9.15
2023-02-18T22:11:36.039Z,9.65
2023-02-18T22:14:09.717Z,8.73
2023-02-18T22:16:43.245Z,8.55
2023-02-18T22:19:16.414Z,8.30
2023-02-18T22:21:49.353Z,10.13
2023-02-18T22:26:56.321Z,7.22
2023-02-18T22:29:30.397Z,8.20
2023-02-18T22:32:03.389Z,6.97
2023-02-18T22:34:36.390Z,8.05
2023-02-18T22:39:42.251Z,7.72
2023-02-18T22:42:16.509Z,7.88
2023-02-18T22:44:49.290Z,7.10
2023-02-18T22:47:22.092Z,7.43
2023-02-18T22:49:55.025Z,6.72
2023-02-18T22:55:00.666Z,6.88
2023-02-18T22:57:34.807Z,7.47
2023-02-18T23:00:10.660Z,7.25
2023-02-18T23:02:43.606Z,7.43
2023-02-18T23:07:49.242Z,5.45
2023-02-18T23:12:56.465Z,7.03
2023-02-18T23:15:29.360Z,6.43
2023-02-18T23:20:48.863Z,6.03
2023-02-18T23:23:21.640Z,6.13
2023-02-18T23:25:54.602Z,5.55
2023-02-18T23:31:23.519Z,5.77
2023-02-18T23:33:58.510Z,5.28
2023-02-18T23:36:33.496Z,5.07
2023-02-18T23:39:09.171Z,5.10
2023-02-18T23:41:42.142Z,4.75
2023-02-18T23:44:18.575Z,4.03
2023-02-18T23:46:51.762Z,4.65
2023-02-18T23:51:58.624Z,3.95
2023-02-18T23:54:31.675Z,4.00
2023-02-18T23:59:38.940Z,3.75
